createdAt,value
2023-02-20T00:02:23.395Z,0.28
2023-02-20T00:07:24.946Z,0.30
2023-02-20T00:12:26.413Z,0.50
2023-02-20T00:17:28.612Z,0.30
2023-02-20T00:22:30.106Z,0.22
2023-02-20T00:27:31.583Z,0.35
2023-02-20T00:32:33.052Z,0.60
2023-02-20T00:37:34.544Z,0.30
2023-02-20T00:42:36.096Z,0.30
2023-02-20T00:47:37.665Z,0.40
2023-02-20T00:52:39.662Z,0.70
2023-02-20T00:57:41.326Z,0.40
2023-02-20T01:02:42.872Z,0.20
2023-02-20T01:07:44.335Z,0.20
2023-02-20T01:12:45.821Z,0.45
2023-02-20T01:17:47.269Z,0.30
2023-02-20T01:22:48.737Z,0.20
2023-02-20T01:27:50.251Z,0.40
2023-02-20T01:32:51.735Z,0.22
2023-02-20T01:37:53.213Z,0.20
2023-02-20T01:42:54.684Z,0.30
2023-02-20T01:47:57.170Z,0.20
2023-02-20T01:53:01.097Z,0.20
2023-02-20T01:58:29.076Z,0.20
2023-02-20T02:03:32.761Z,0.30
2023-02-20T02:08:35.923Z,0.28
2023-02-20T02:13:38.785Z,0.40
2023-02-20T02:18:47.243Z,0.10
2023-02-20T02:24:15.937Z,0.10
2023-02-20T02:29:17.399Z,0.17
2023-02-20T02:34:24.933Z,0.20
2023-02-20T02:39:33.802Z,1.02
2023-02-20T02:44:35.271Z,1.83
2023-02-20T02:49:39.618Z,2.08
2023-02-20T02:54:41.209Z,1.65
2023-02-20T02:59:44.438Z,1.08
2023-02-20T03:04:49.574Z,0.47
2023-02-20T03:09:51.066Z,0.50
2023-02-20T03:15:29.553Z,0.45
2023-02-20T03:20:31.050Z,0.50
2023-02-20T03:25:40.276Z,0.45
2023-02-20T03:30:41.745Z,0.43
2023-02-20T03:36:02.743Z,0.28
2023-02-20T03:41:23.430Z,0.40
2023-02-20T03:46:25.803Z,0.60
2023-02-20T03:51:45.874Z,0.32
2023-02-20T03:56:53.161Z,0.40
2023-02-20T04:01:56.246Z,0.50
2023-02-20T04:06:58.412Z,0.22
2023-02-20T04:12:02.769Z,0.43
2023-02-20T04:17:07.239Z,0.43
2023-02-20T04:22:10.943Z,0.10
2023-02-20T04:27:12.686Z,0.30
2023-02-20T04:32:14.183Z,0.50
2023-02-20T04:37:16.964Z,0.22
2023-02-20T04:42:18.454Z,0.20
2023-02-20T04:47:20.007Z,0.32
2023-02-20T04:52:21.838Z,0.30
2023-02-20T04:57:23.692Z,0.20
2023-02-20T05:02:25.621Z,0.38
2023-02-20T05:07:27.081Z,0.50
2023-02-20T05:12:28.558Z,0.38
2023-02-20T05:17:29.973Z,0.10
2023-02-20T05:22:31.442Z,0.20
2023-02-20T05:27:32.989Z,0.17
2023-02-20T05:32:34.445Z,0.35
2023-02-20T05:37:35.931Z,0.60
2023-02-20T05:42:37.899Z,0.55
2023-02-20T05:47:39.418Z,0.52
2023-02-20T05:52:40.918Z,0.17
2023-02-20T05:57:42.819Z,0.30
2023-02-20T06:02:44.300Z,0.20
2023-02-20T06:07:46.290Z,0.40
2023-02-20T06:12:47.727Z,0.30
2023-02-20T06:17:49.254Z,0.30
2023-02-20T06:22:50.887Z,0.20
2023-02-20T06:27:52.356Z,0.38
2023-02-20T06:32:53.821Z,0.25
2023-02-20T06:37:55.378Z,0.20
2023-02-20T06:42:56.877Z,0.52
2023-02-20T06:47:58.350Z,0.38
2023-02-20T06:52:59.838Z,0.63
2023-02-20T06:58:01.435Z,0.47
2023-02-20T07:03:02.897Z,0.30
2023-02-20T07:08:04.485Z,0.30
2023-02-20T07:13:06.326Z,0.25
2023-02-20T07:18:07.889Z,0.30
2023-02-20T07:23:09.942Z,0.47
2023-02-20T07:28:11.721Z,0.50
2023-02-20T07:33:13.289Z,0.20
2023-02-20T07:38:14.882Z,0.17
2023-02-20T07:43:16.354Z,0.50
2023-02-20T07:48:17.851Z,0.30
2023-02-20T07:53:20.375Z,0.40
2023-02-20T07:58:21.906Z,0.15
2023-02-20T08:03:23.371Z,0.15
2023-02-20T08:08:25.654Z,0.10
2023-02-20T08:13:27.300Z,0.00
2023-02-20T08:18:28.809Z,0.00
2023-02-20T08:23:30.311Z,0.30
2023-02-20T08:28:31.819Z,0.10
2023-02-20T08:33:33.336Z,0.10
2023-02-20T08:38:38.921Z,0.10
2023-02-20T08:43:40.880Z,0.22
2023-02-20T08:48:43.019Z,0.28
2023-02-20T08:53:44.506Z,0.00
2023-02-20T08:58:46.279Z,0.20
2023-02-20T09:03:49.246Z,0.15
2023-02-20T09:08:50.691Z,0.20
2023-02-20T09:13:52.442Z,0.10
2023-02-20T09:18:57.413Z,0.10
2023-02-20T09:23:59.116Z,0.00
2023-02-20T09:29:00.596Z,0.00
2023-02-20T09:34:02.126Z,0.00
2023-02-20T09:39:03.691Z,0.00
2023-02-20T09:44:17.863Z,0.00
2023-02-20T09:49:22.039Z,0.00
2023-02-20T09:54:45.270Z,0.20
2023-02-20T09:59:52.284Z,0.17
2023-02-20T10:05:01.591Z,0.10
2023-02-20T10:10:20.951Z,0.30
2023-02-20T10:15:22.415Z,0.17
2023-02-20T10:20:24.390Z,0.20
2023-02-20T10:25:26.221Z,0.15
2023-02-20T10:30:31.273Z,0.10
2023-02-20T10:35:37.562Z,0.10
2023-02-20T10:40:47.486Z,0.10
2023-02-20T10:45:53.033Z,0.20
2023-02-20T10:51:07.190Z,0.10
2023-02-20T10:56:11.386Z,0.20
2023-02-20T11:01:15.378Z,0.30
2023-02-20T11:06:18.837Z,0.10
2023-02-20T11:11:36.654Z,0.25
2023-02-20T11:16:56.574Z,0.17
2023-02-20T11:21:58.237Z,0.20
2023-02-20T11:27:15.989Z,0.30
2023-02-20T11:32:17.443Z,0.25
2023-02-20T11:37:18.898Z,0.20
2023-02-20T11:42:20.797Z,0.30
2023-02-20T11:47:25.119Z,0.68
2023-02-20T11:52:26.654Z,0.90
2023-02-20T11:57:29.445Z,0.70
2023-02-20T12:02:31.052Z,0.93
2023-02-20T12:07:39.864Z,0.65
2023-02-20T12:12:41.909Z,0.35
2023-02-20T12:17:43.418Z,0.52
2023-02-20T12:22:56.680Z,0.75
2023-02-20T12:28:13.067Z,0.68
2023-02-20T12:33:29.517Z,0.68
2023-02-20T12:38:46.737Z,0.90
2023-02-20T12:44:23.551Z,0.63
2023-02-20T12:49:43.613Z,0.57
2023-02-20T12:55:04.291Z,0.55
2023-02-20T13:00:29.377Z,0.73
2023-02-20T13:05:32.840Z,0.50
2023-02-20T13:10:36.989Z,0.38
2023-02-20T13:15:47.674Z,0.73
2023-02-20T13:20:50.735Z,0.50
2023-02-20T13:25:52.962Z,0.40
2023-02-20T13:31:17.510Z,0.60
2023-02-20T13:36:27.942Z,0.50
2023-02-20T13:41:49.343Z,0.40
2023-02-20T13:47:02.592Z,0.20
2023-02-20T13:52:24.031Z,0.63
2023-02-20T13:57:29.939Z,0.47
2023-02-20T14:02:31.467Z,0.22
2023-02-20T14:07:43.230Z,0.35
2023-02-20T14:12:45.789Z,0.43
2023-02-20T14:17:47.275Z,0.63
2023-02-20T14:22:50.485Z,0.50
2023-02-20T14:27:52.177Z,0.30
2023-02-20T14:32:56.300Z,0.45
2023-02-20T14:38:16.188Z,0.57
2023-02-20T14:43:17.750Z,0.80
2023-02-20T14:48:24.175Z,0.50
2023-02-20T14:53:25.655Z,1.10
2023-02-20T14:58:28.301Z,0.60
2023-02-20T15:03:31.589Z,0.50
2023-02-20T15:08:35.649Z,0.47
2023-02-20T15:13:40.268Z,0.40
2023-02-20T15:18:42.971Z,0.20
2023-02-20T15:23:45.304Z,0.20
2023-02-20T15:28:46.770Z,0.20
2023-02-20T15:33:53.514Z,0.32
2023-02-20T15:38:55.961Z,0.35
2023-02-20T15:43:58.433Z,0.25
2023-02-20T15:49:01.785Z,0.22
2023-02-20T15:54:04.764Z,0.60
2023-02-20T15:59:07.932Z,0.30
2023-02-20T16:04:10.994Z,0.10
2023-02-20T16:09:12.466Z,0.10
2023-02-20T16:14:16.340Z,0.30
2023-02-20T16:19:21.217Z,0.47
2023-02-20T16:24:25.695Z,0.40
2023-02-20T16:29:36.186Z,0.40
2023-02-20T16:34:38.440Z,0.52
2023-02-20T16:39:40.385Z,0.20
2023-02-20T16:44:43.089Z,0.13
2023-02-20T16:49:44.647Z,0.10
2023-02-20T16:54:47.289Z,0.40
2023-02-20T16:59:59.158Z,0.13
2023-02-20T17:05:01.210Z,0.30
2023-02-20T17:10:03.697Z,0.30
2023-02-20T17:15:06.544Z,0.30
2023-02-20T17:20:11.570Z,0.30
2023-02-20T17:25:15.473Z,0.35
2023-02-20T17:30:20.384Z,0.35
2023-02-20T17:35:21.951Z,0.25
2023-02-20T17:40:23.521Z,0.10
2023-02-20T17:45:25.202Z,0.20
2023-02-20T17:50:26.726Z,0.55
2023-02-20T17:55:28.406Z,0.38
2023-02-20T18:00:30.221Z,0.40
2023-02-20T18:05:31.972Z,0.40
2023-02-20T18:10:33.483Z,0.25
2023-02-20T18:15:36.067Z,0.40
2023-02-20T18:20:37.677Z,0.40
2023-02-20T18:25:40.897Z,0.20
2023-02-20T18:30:42.899Z,0.30
2023-02-20T18:35:44.733Z,0.40
2023-02-20T18:40:47.438Z,0.35
2023-02-20T18:45:49.588Z,0.57
2023-02-20T18:50:51.835Z,0.50
2023-02-20T18:55:53.386Z,0.20
2023-02-20T19:00:55.310Z,0.40
2023-02-20T19:05:56.820Z,0.55
2023-02-20T19:10:58.363Z,0.30
2023-02-20T19:15:59.893Z,0.40
2023-02-20T19:21:01.399Z,0.50
2023-02-20T19:26:02.929Z,0.40
2023-02-20T19:31:05.098Z,0.20
2023-02-20T19:36:09.895Z,0.63
2023-02-20T19:41:12.905Z,0.50
2023-02-20T19:46:18.619Z,0.43
2023-02-20T19:51:20.635Z,0.40
2023-02-20T19:56:22.138Z,0.20
2023-02-20T20:01:23.588Z,0.08
2023-02-20T20:06:26.344Z,0.30
2023-02-20T20:11:27.842Z,0.30
2023-02-20T20:16:29.617Z,0.20
2023-02-20T20:21:31.610Z,0.30
2023-02-20T20:26:34.090Z,0.45
2023-02-20T20:31:37.805Z,0.30
2023-02-20T20:36:39.315Z,0.43
2023-02-20T20:41:45.405Z,0.35
2023-02-20T20:46:47.055Z,0.50
2023-02-20T20:51:48.559Z,0.30
2023-02-20T20:56:51.050Z,0.30
2023-02-20T21:01:52.571Z,0.30
2023-02-20T21:06:54.213Z,0.45
2023-02-20T21:11:55.851Z,0.45
2023-02-20T21:16:57.870Z,0.28
2023-02-20T21:21:59.379Z,0.32
2023-02-20T21:27:00.830Z,0.38
2023-02-20T21:32:02.718Z,0.43
2023-02-20T21:37:04.200Z,0.30
2023-02-20T21:42:24.065Z,0.52
2023-02-20T21:47:25.550Z,0.30
2023-02-20T21:52:28.545Z,0.60
2023-02-20T21:57:30.159Z,1.52
2023-02-20T22:02:31.561Z,2.13
2023-02-20T22:07:51.816Z,2.67
2023-02-20T22:13:11.768Z,2.92
2023-02-20T22:18:31.726Z,1.67
2023-02-20T22:23:51.786Z,0.60
2023-02-20T22:29:11.877Z,0.57
2023-02-20T22:34:32.096Z,0.30
2023-02-20T22:39:52.127Z,0.57
2023-02-20T22:45:11.971Z,0.65
2023-02-20T22:50:32.012Z,0.50
2023-02-20T22:55:52.224Z,0.68
2023-02-20T23:01:12.352Z,0.28
2023-02-20T23:06:36.693Z,0.68
2023-02-20T23:11:57.110Z,0.25
2023-02-20T23:17:29.295Z,0.32
2023-02-20T23:22:54.844Z,0.40
2023-02-20T23:28:14.905Z,0.20
2023-02-20T23:33:35.177Z,0.20
2023-02-20T23:38:55.174Z,0.30
2023-02-20T23:44:15.389Z,0.22
2023-02-20T23:49:35.535Z,0.20
2023-02-20T23:54:55.975Z,0.20
